createdAt,value
2019-03-13T00:00:35.477Z,40.4
2019-03-13T00:01:28.858Z,40.4
2019-03-13T00:02:15.041Z,40.4
2019-03-13T00:03:05.136Z,40.4
2019-03-13T00:03:55.717Z,40.4
2019-03-13T00:04:44.925Z,40.4
2019-03-13T00:05:35.810Z,40.4
2019-03-13T00:06:25.618Z,40.4
2019-03-13T00:07:15.657Z,40.4
2019-03-13T00:08:06.013Z,40.4
2019-03-13T00:08:56.061Z,40.4
2019-03-13T00:09:46.113Z,40.4
2019-03-13T00:10:38.697Z,40.4
2019-03-13T00:11:26.573Z,40.4
2019-03-13T00:12:15.814Z,40.3
2019-03-13T00:13:06.642Z,40.3
2019-03-13T00:13:55.860Z,40.3
2019-03-13T00:14:45.412Z,40.3
2019-03-13T00:15:36.382Z,40.3
2019-03-13T00:16:25.763Z,40.3
2019-03-13T00:17:16.399Z,40.3
2019-03-13T00:18:06.173Z,40.3
2019-03-13T00:18:56.502Z,40.3
2019-03-13T00:19:47.134Z,40.3
2019-03-13T00:20:36.639Z,40.3
2019-03-13T00:21:26.206Z,40.3
2019-03-13T00:22:16.497Z,40.3
2019-03-13T00:23:06.874Z,40.3
2019-03-13T00:23:56.840Z,40.3
2019-03-13T00:24:47.259Z,40.3
2019-03-13T00:25:36.837Z,40.3
2019-03-13T00:26:27.094Z,40.3
2019-03-13T00:27:17.176Z,40.3
2019-03-13T00:28:07.527Z,40.3
2019-03-13T00:28:57.216Z,40.3
2019-03-13T00:29:46.989Z,40.3
2019-03-13T00:30:36.771Z,40.3
2019-03-13T00:31:26.578Z,40.3
2019-03-13T00:32:17.465Z,40.3
2019-03-13T00:33:07.258Z,40.3
2019-03-13T00:33:57.848Z,40.3
2019-03-13T00:34:47.366Z,40.3
2019-03-13T00:35:37.433Z,40.3
2019-03-13T00:36:27.209Z,40.3
2019-03-13T00:37:17.526Z,40.3
2019-03-13T00:38:07.961Z,40.2
2019-03-13T00:38:57.363Z,40.3
2019-03-13T00:39:47.471Z,40.2
2019-03-13T00:40:38.071Z,40.2
2019-03-13T00:41:27.543Z,40.2
2019-03-13T00:42:17.606Z,40.2
2019-03-13T00:43:08.365Z,40.2
2019-03-13T00:43:57.783Z,40.2
2019-03-13T00:44:48.131Z,40.2
2019-03-13T00:45:38.180Z,40.2
2019-03-13T00:46:27.909Z,40.2
2019-03-13T00:47:18.524Z,40.2
2019-03-13T00:48:07.618Z,40.2
2019-03-13T00:48:59.228Z,40.1
2019-03-13T00:49:49.242Z,40.2
2019-03-13T00:50:38.780Z,40.1
2019-03-13T00:51:28.660Z,40.1
2019-03-13T00:52:18.998Z,40.1
2019-03-13T00:53:09.302Z,40.1
2019-03-13T00:53:58.992Z,40.1
2019-03-13T00:54:48.220Z,40.1
2019-03-13T00:55:39.405Z,40.1
2019-03-13T00:56:29.174Z,40.1
2019-03-13T00:57:19.785Z,40.1
2019-03-13T00:58:09.067Z,40.1
2019-03-13T00:58:59.624Z,40.1
2019-03-13T00:59:49.135Z,40.1
2019-03-13T01:00:40.046Z,40.1
2019-03-13T01:01:29.542Z,40.1
2019-03-13T01:02:20.154Z,40.1
2019-03-13T01:03:09.407Z,40.1
2019-03-13T01:03:59.457Z,40.1
2019-03-13T01:04:49.796Z,40.1
2019-03-13T01:05:40.406Z,40.1
2019-03-13T01:06:29.907Z,40.1
2019-03-13T01:07:19.682Z,40.1
2019-03-13T01:08:10.289Z,40.1
2019-03-13T01:09:00.234Z,40.1
2019-03-13T01:09:49.094Z,40.1
2019-03-13T01:10:40.049Z,40.1
2019-03-13T01:11:32.737Z,40
2019-03-13T01:12:19.761Z,40.1
2019-03-13T01:13:10.103Z,40
2019-03-13T01:14:01.004Z,40
2019-03-13T01:14:49.636Z,40
2019-03-13T01:15:40.634Z,40
2019-03-13T01:16:30.163Z,40
2019-03-13T01:17:20.468Z,40
2019-03-13T01:18:10.681Z,40
2019-03-13T01:19:00.598Z,40
2019-03-13T01:19:50.644Z,40
2019-03-13T01:20:40.148Z,40
2019-03-13T01:21:30.741Z,40
2019-03-13T01:22:21.103Z,40
2019-03-13T01:23:10.694Z,40
2019-03-13T01:24:01.479Z,40
2019-03-13T01:24:51.518Z,39.9
2019-03-13T01:25:40.553Z,39.9
2019-03-13T01:26:31.468Z,39.9
2019-03-13T01:27:20.915Z,39.9
2019-03-13T01:28:11.535Z,39.9
2019-03-13T01:29:02.058Z,39.9
2019-03-13T01:29:51.884Z,39.9
2019-03-13T01:30:41.967Z,39.9
2019-03-13T01:31:31.684Z,39.9
2019-03-13T01:32:21.260Z,39.9
2019-03-13T01:33:11.800Z,39.9
2019-03-13T01:34:02.228Z,39.9
2019-03-13T01:34:51.360Z,39.9
2019-03-13T01:35:41.800Z,39.9
2019-03-13T01:36:32.021Z,39.9
2019-03-13T01:37:22.180Z,39.9
2019-03-13T01:38:11.882Z,39.9
2019-03-13T01:39:02.232Z,39.9
2019-03-13T01:39:51.737Z,39.9
2019-03-13T01:40:42.332Z,39.9
2019-03-13T01:41:32.987Z,39.9
2019-03-13T01:42:22.742Z,39.9
2019-03-13T01:43:12.827Z,39.9
2019-03-13T01:44:03.546Z,39.9
2019-03-13T01:44:52.634Z,39.9
2019-03-13T01:45:42.702Z,39.9
2019-03-13T01:46:32.752Z,39.9
2019-03-13T01:47:22.532Z,39.9
2019-03-13T01:48:13.159Z,39.8
2019-03-13T01:49:03.492Z,39.8
2019-03-13T01:49:52.745Z,39.8
2019-03-13T01:50:42.511Z,39.8
2019-03-13T01:51:33.399Z,39.8
2019-03-13T01:52:23.182Z,39.8
2019-03-13T01:53:13.252Z,39.8
2019-03-13T01:54:03.682Z,39.8
2019-03-13T01:54:53.076Z,39.8
2019-03-13T01:55:43.796Z,39.8
2019-03-13T01:56:33.541Z,39.8
2019-03-13T01:57:23.840Z,39.8
2019-03-13T01:58:13.901Z,39.8
2019-03-13T01:59:04.228Z,39.8
2019-03-13T01:59:53.454Z,39.8
2019-03-13T02:00:44.043Z,39.9
2019-03-13T02:01:33.611Z,39.9
2019-03-13T02:02:23.992Z,39.9
2019-03-13T02:03:13.485Z,40
2019-03-13T02:04:04.054Z,40.1
2019-03-13T02:04:53.296Z,40.1
2019-03-13T02:05:43.351Z,40.2
2019-03-13T02:06:33.997Z,40.3
2019-03-13T02:07:24.336Z,40.3
2019-03-13T02:08:14.324Z,40.4
2019-03-13T02:09:04.711Z,40.5
2019-03-13T02:09:54.499Z,40.6
2019-03-13T02:10:44.815Z,40.6
2019-03-13T02:11:34.533Z,40.8
2019-03-13T02:12:24.080Z,40.8
2019-03-13T02:13:15.218Z,40.9
2019-03-13T02:14:05.013Z,41
2019-03-13T02:14:55.198Z,41.1
2019-03-13T02:15:44.013Z,41.1
2019-03-13T02:16:34.918Z,41.1
2019-03-13T02:17:24.965Z,41.1
2019-03-13T02:18:15.088Z,41.2
2019-03-13T02:19:03.675Z,41.2
2019-03-13T02:19:55.450Z,41.3
2019-03-13T02:20:45.285Z,41.3
2019-03-13T02:21:34.967Z,41.3
2019-03-13T02:22:25.332Z,41.3
2019-03-13T02:23:15.387Z,41.3
2019-03-13T02:24:05.246Z,41.3
2019-03-13T02:24:59.550Z,41.3
2019-03-13T02:25:45.086Z,41.3
2019-03-13T02:26:35.622Z,41.4
2019-03-13T02:27:25.678Z,41.4
2019-03-13T02:28:16.040Z,41.4
2019-03-13T02:29:05.520Z,41.4
2019-03-13T02:29:55.864Z,41.4
2019-03-13T02:30:45.970Z,41.4
2019-03-13T02:31:36.485Z,41.4
2019-03-13T02:32:26.338Z,41.4
2019-03-13T02:33:16.474Z,41.4
2019-03-13T02:34:06.371Z,41.5
2019-03-13T02:34:56.260Z,41.4
2019-03-13T02:35:46.865Z,41.5
2019-03-13T02:36:36.675Z,41.5
2019-03-13T02:37:27.195Z,41.5
2019-03-13T02:38:16.947Z,41.6
2019-03-13T02:39:06.560Z,41.6
2019-03-13T02:39:55.587Z,41.6
2019-03-13T02:40:47.008Z,41.6
2019-03-13T02:41:37.328Z,41.6
2019-03-13T02:42:26.264Z,41.6
2019-03-13T02:43:17.004Z,41.6
2019-03-13T02:44:06.998Z,41.6
2019-03-13T02:44:57.297Z,41.6
2019-03-13T02:45:46.823Z,41.6
2019-03-13T02:46:37.632Z,41.7
2019-03-13T02:47:27.475Z,41.7
2019-03-13T02:48:16.750Z,41.7
2019-03-13T02:49:06.542Z,41.7
2019-03-13T02:49:57.354Z,41.7
2019-03-13T02:50:47.412Z,41.8
2019-03-13T02:51:37.583Z,41.8
2019-03-13T02:52:27.974Z,41.8
2019-03-13T02:53:17.604Z,41.8
2019-03-13T02:54:07.411Z,41.8
2019-03-13T02:54:57.201Z,41.8
2019-03-13T02:55:47.243Z,41.8
2019-03-13T02:56:37.019Z,41.8
2019-03-13T02:57:28.272Z,41.8
2019-03-13T02:58:17.098Z,41.8
2019-03-13T02:59:08.548Z,41.8
2019-03-13T02:59:58.217Z,41.8
2019-03-13T03:00:48.746Z,41.8
2019-03-13T03:01:38.245Z,41.8
2019-03-13T03:02:28.278Z,41.8
2019-03-13T03:03:18.589Z,41.8
2019-03-13T03:04:08.618Z,41.8
2019-03-13T03:07:40.398Z,41.9
2019-03-13T03:08:29.894Z,41.9
2019-03-13T03:09:20.032Z,41.9
2019-03-13T03:10:10.604Z,41.9
2019-03-13T03:11:00.013Z,41.9
2019-03-13T03:11:50.290Z,41.9
2019-03-13T03:12:40.652Z,41.9
2019-03-13T03:13:30.609Z,41.9
2019-03-13T03:14:20.591Z,41.9
2019-03-13T03:15:10.253Z,41.9
2019-03-13T03:16:00.641Z,41.9
2019-03-13T03:16:50.708Z,41.9
2019-03-13T03:17:41.088Z,41.9
2019-03-13T03:18:31.057Z,41.9
2019-03-13T03:19:20.833Z,41.9
2019-03-13T03:20:11.047Z,41.9
2019-03-13T03:21:01.398Z,41.9
2019-03-13T03:21:50.451Z,41.9
2019-03-13T03:22:40.763Z,41.9
2019-03-13T03:23:30.847Z,41.9
2019-03-13T03:24:21.434Z,41.9
2019-03-13T03:25:11.535Z,41.9
2019-03-13T03:26:01.767Z,41.9
2019-03-13T03:26:51.583Z,41.9
2019-03-13T03:27:41.154Z,41.9
2019-03-13T03:28:31.591Z,42
2019-03-13T03:29:21.115Z,42
2019-03-13T03:30:11.751Z,42
2019-03-13T03:31:01.940Z,42
2019-03-13T03:31:51.427Z,42
2019-03-13T03:32:42.250Z,42
2019-03-13T03:33:32.377Z,42
2019-03-13T03:34:22.362Z,42
2019-03-13T03:35:11.680Z,42
2019-03-13T03:36:02.035Z,42
2019-03-13T03:36:51.565Z,42
2019-03-13T03:37:42.376Z,42
2019-03-13T03:38:32.246Z,42
2019-03-13T03:39:22.263Z,42
2019-03-13T03:40:12.296Z,42
2019-03-13T03:41:02.120Z,42
2019-03-13T03:41:52.579Z,42
2019-03-13T03:42:42.261Z,42
2019-03-13T03:43:46.529Z,42
2019-03-13T03:44:22.696Z,41.9
2019-03-13T03:45:12.444Z,42
2019-03-13T03:46:03.007Z,42
2019-03-13T03:46:52.288Z,42
2019-03-13T03:47:42.335Z,41.9
2019-03-13T03:48:33.398Z,41.9
2019-03-13T03:49:22.439Z,41.9
2019-03-13T03:50:13.053Z,41.9
2019-03-13T03:51:03.386Z,41.9
2019-03-13T03:51:53.121Z,41.9
2019-03-13T03:52:43.198Z,41.9
2019-03-13T03:53:33.019Z,41.9
2019-03-13T03:54:23.315Z,41.9
2019-03-13T03:55:13.446Z,41.9
2019-03-13T03:56:03.752Z,41.9
2019-03-13T03:56:53.550Z,41.9
2019-03-13T03:57:43.820Z,41.9
2019-03-13T03:58:35.818Z,41.9
2019-03-13T03:59:23.955Z,41.9
2019-03-13T04:00:13.775Z,41.9
2019-03-13T04:01:03.788Z,41.9
2019-03-13T04:01:53.590Z,41.9
2019-03-13T04:02:43.951Z,41.9
2019-03-13T04:03:34.009Z,41.9
2019-03-13T04:04:24.405Z,41.9
2019-03-13T04:05:14.080Z,41.9
2019-03-13T04:06:04.500Z,41.9
2019-03-13T04:06:54.169Z,41.9
2019-03-13T04:07:44.588Z,41.9
2019-03-13T04:08:39.040Z,41.9
2019-03-13T04:09:24.477Z,41.8
2019-03-13T04:10:14.123Z,41.9
2019-03-13T04:11:04.960Z,41.8
2019-03-13T04:11:54.605Z,41.8
2019-03-13T04:12:45.194Z,41.8
2019-03-13T04:13:34.667Z,41.8
2019-03-13T04:14:25.099Z,41.8
2019-03-13T04:15:15.107Z,41.8
2019-03-13T04:16:05.262Z,41.8
2019-03-13T04:16:55.175Z,41.8
2019-03-13T04:17:44.682Z,41.8
2019-03-13T04:18:33.990Z,41.8
2019-03-13T04:19:24.657Z,41.8
2019-03-13T04:20:14.981Z,41.8
2019-03-13T04:21:05.643Z,41.8
2019-03-13T04:21:55.275Z,41.8
2019-03-13T04:22:45.089Z,41.8
2019-03-13T04:23:35.767Z,41.8
2019-03-13T04:24:25.496Z,41.8
2019-03-13T04:25:30.670Z,41.8
2019-03-13T04:26:05.372Z,41.8
2019-03-13T04:26:56.016Z,41.8
2019-03-13T04:27:45.719Z,41.8
2019-03-13T04:28:35.797Z,41.8
2019-03-13T04:29:25.661Z,41.8
2019-03-13T04:30:16.370Z,41.8
2019-03-13T04:31:06.259Z,41.7
2019-03-13T04:31:56.056Z,41.7
2019-03-13T04:32:45.988Z,41.7
2019-03-13T04:33:35.801Z,41.7
2019-03-13T04:34:25.963Z,41.7
2019-03-13T04:35:16.461Z,41.7
2019-03-13T04:36:06.083Z,41.7
2019-03-13T04:36:56.089Z,41.7
2019-03-13T04:37:46.401Z,41.7
2019-03-13T04:38:36.841Z,41.7
2019-03-13T04:39:26.736Z,41.7
2019-03-13T04:40:16.582Z,41.7
2019-03-13T04:41:06.380Z,41.7
2019-03-13T04:41:56.437Z,41.6
2019-03-13T04:42:46.236Z,41.7
2019-03-13T04:43:37.023Z,41.6
2019-03-13T04:44:26.255Z,41.6
2019-03-13T04:45:16.682Z,41.6
2019-03-13T04:46:06.524Z,41.6
2019-03-13T04:46:57.000Z,41.6
2019-03-13T04:47:46.782Z,41.6
2019-03-13T04:48:37.082Z,41.6
2019-03-13T04:49:27.197Z,41.6
2019-03-13T04:50:16.690Z,41.6
2019-03-13T04:51:07.004Z,41.6
2019-03-13T04:51:57.054Z,41.6
2019-03-13T04:52:46.418Z,41.6
2019-03-13T04:53:37.172Z,41.6
2019-03-13T04:54:27.299Z,41.6
2019-03-13T04:55:17.096Z,41.6
2019-03-13T04:56:07.211Z,41.6
2019-03-13T04:56:56.642Z,41.6
2019-03-13T04:57:47.484Z,41.6
2019-03-13T04:58:37.517Z,41.6
2019-03-13T04:59:27.334Z,41.6
2019-03-13T05:00:18.369Z,41.6
2019-03-13T05:01:07.708Z,41.6
2019-03-13T05:01:57.001Z,41.5
2019-03-13T05:02:48.112Z,41.5
2019-03-13T05:03:38.234Z,41.5
2019-03-13T05:04:27.969Z,41.5
2019-03-13T05:05:18.086Z,41.5
2019-03-13T05:06:08.621Z,41.5
2019-03-13T05:06:58.104Z,41.5
2019-03-13T05:07:48.727Z,41.5
2019-03-13T05:08:51.376Z,41.5
2019-03-13T05:09:28.936Z,41.5
2019-03-13T05:10:18.381Z,41.5
2019-03-13T05:11:08.985Z,41.4
2019-03-13T05:11:59.071Z,41.4
2019-03-13T05:12:48.848Z,41.4
2019-03-13T05:13:39.156Z,41.4
2019-03-13T05:14:28.399Z,41.4
2019-03-13T05:15:19.055Z,41.4
2019-03-13T05:16:08.603Z,41.4
2019-03-13T05:16:59.361Z,41.4
2019-03-13T05:17:49.139Z,41.4
2019-03-13T05:18:39.016Z,41.4
2019-03-13T05:19:29.617Z,41.4
2019-03-13T05:20:20.054Z,41.4
2019-03-13T05:21:09.431Z,41.4
2019-03-13T05:21:59.492Z,41.4
2019-03-13T05:22:49.519Z,41.4
2019-03-13T05:23:39.857Z,41.4
2019-03-13T05:24:29.904Z,41.4
2019-03-13T05:25:22.967Z,41.4
2019-03-13T05:26:09.602Z,41.4
2019-03-13T05:26:59.784Z,41.4
2019-03-13T05:27:49.329Z,41.4
2019-03-13T05:28:39.466Z,41.4
2019-03-13T05:29:29.757Z,41.4
2019-03-13T05:30:20.036Z,41.4
2019-03-13T05:31:09.956Z,41.4
2019-03-13T05:31:59.629Z,41.4
2019-03-13T05:32:49.931Z,41.4
2019-03-13T05:33:40.711Z,41.4
2019-03-13T05:34:30.219Z,41.4
2019-03-13T05:35:20.488Z,41.3
2019-03-13T05:36:10.891Z,41.3
2019-03-13T05:37:00.933Z,41.3
2019-03-13T05:37:50.117Z,41.3
2019-03-13T05:38:40.968Z,41.3
2019-03-13T05:39:31.099Z,41.3
2019-03-13T05:40:20.755Z,41.3
2019-03-13T05:41:10.928Z,41.3
2019-03-13T05:42:00.663Z,41.3
2019-03-13T05:42:49.713Z,41.2
2019-03-13T05:43:40.497Z,41.2
2019-03-13T05:44:30.508Z,41.2
2019-03-13T05:45:20.861Z,41.2
2019-03-13T05:46:10.418Z,41.2
2019-03-13T05:47:01.502Z,41.2
2019-03-13T05:47:51.573Z,41.2
2019-03-13T05:48:41.445Z,41.1
2019-03-13T05:49:31.687Z,41.2
2019-03-13T05:50:21.810Z,41.1
2019-03-13T05:51:11.613Z,41.1
2019-03-13T05:52:01.346Z,41.1
2019-03-13T05:52:51.637Z,41.1
2019-03-13T05:53:42.057Z,41.1
2019-03-13T05:54:31.779Z,41.1
2019-03-13T05:55:21.900Z,41.1
2019-03-13T05:56:11.324Z,41.1
2019-03-13T05:57:02.307Z,41.1
2019-03-13T05:57:51.735Z,41.1
2019-03-13T05:58:41.800Z,41.1
2019-03-13T05:59:32.112Z,41.1
2019-03-13T06:00:21.634Z,41.1
2019-03-13T06:01:12.502Z,41.1
2019-03-13T06:02:02.424Z,41.1
2019-03-13T06:02:53.797Z,41
2019-03-13T06:03:42.205Z,41
2019-03-13T06:05:39.271Z,41
2019-03-13T06:06:29.042Z,41
2019-03-13T06:07:19.694Z,40.9
2019-03-13T06:08:09.359Z,40.9
2019-03-13T06:08:59.427Z,40.9
2019-03-13T06:09:50.123Z,41
2019-03-13T06:10:39.256Z,41
2019-03-13T06:11:29.659Z,41
2019-03-13T06:12:20.252Z,41
2019-03-13T06:13:09.804Z,41.1
2019-03-13T06:14:00.106Z,41.1
2019-03-13T06:14:50.209Z,41.1
2019-03-13T06:15:40.193Z,41.1
2019-03-13T06:16:30.554Z,41.1
2019-03-13T06:17:20.928Z,41.1
2019-03-13T06:18:14.338Z,41.1
2019-03-13T06:19:00.436Z,41.1
2019-03-13T06:19:50.181Z,41.1
2019-03-13T06:20:40.891Z,41.1
2019-03-13T06:21:30.589Z,41.2
2019-03-13T06:22:20.426Z,41.2
2019-03-13T06:23:10.967Z,41.1
2019-03-13T06:24:01.056Z,41.1
2019-03-13T06:24:50.283Z,41.1
2019-03-13T06:25:41.543Z,41.1
2019-03-13T06:26:30.404Z,41.1
2019-03-13T06:27:20.450Z,41.1
2019-03-13T06:28:10.803Z,41.1
2019-03-13T06:29:01.401Z,41.1
2019-03-13T06:29:51.179Z,41.1
2019-03-13T06:30:41.043Z,41.1
2019-03-13T06:31:31.398Z,41.1
2019-03-13T06:32:20.930Z,41.1
2019-03-13T06:33:10.453Z,41.1
2019-03-13T06:34:01.451Z,41.1
2019-03-13T06:34:51.250Z,41.1
2019-03-13T06:35:41.580Z,41.1
2019-03-13T06:36:31.650Z,41.1
2019-03-13T06:37:22.008Z,41.1
2019-03-13T06:38:12.297Z,41
2019-03-13T06:39:02.097Z,41.1
2019-03-13T06:39:51.975Z,41
2019-03-13T06:40:41.677Z,41
2019-03-13T06:41:32.622Z,41
2019-03-13T06:42:22.105Z,41
2019-03-13T06:43:11.597Z,41
2019-03-13T06:44:02.440Z,41
2019-03-13T06:44:52.331Z,41
2019-03-13T06:45:42.840Z,40.9
2019-03-13T06:46:32.092Z,40.9
2019-03-13T06:47:24.912Z,40.9
2019-03-13T06:48:12.012Z,40.9
2019-03-13T06:49:02.804Z,40.9
2019-03-13T06:49:52.579Z,40.9
2019-03-13T06:50:42.911Z,40.9
2019-03-13T06:51:33.069Z,40.9
2019-03-13T06:52:23.102Z,40.9
2019-03-13T06:53:13.310Z,40.9
2019-03-13T06:54:03.242Z,40.9
2019-03-13T06:54:52.394Z,40.9
2019-03-13T06:55:43.372Z,40.9
2019-03-13T06:56:33.337Z,40.9
2019-03-13T06:57:23.952Z,40.9
2019-03-13T06:58:12.337Z,40.8
2019-03-13T06:59:02.961Z,40.8
2019-03-13T06:59:53.276Z,40.8
2019-03-13T07:00:42.514Z,40.8
2019-03-13T07:01:32.867Z,40.8
2019-03-13T07:02:23.461Z,40.8
2019-03-13T07:03:13.530Z,40.8
2019-03-13T07:05:39.164Z,40.8
2019-03-13T07:06:28.641Z,40.8
2019-03-13T07:07:19.354Z,40.8
2019-03-13T07:08:09.594Z,39.7
2019-03-13T07:08:59.163Z,25.5
2019-03-13T07:09:50.055Z,34.6
2019-03-13T07:10:39.591Z,47.9
2019-03-13T07:11:30.101Z,53.3
2019-03-13T07:12:20.287Z,54.8
2019-03-13T07:13:09.721Z,55
2019-03-13T07:13:59.496Z,54.7
2019-03-13T07:14:50.426Z,54.2
2019-03-13T07:15:41.913Z,53.7
2019-03-13T07:16:30.451Z,53.1
2019-03-13T07:17:20.241Z,52.7
2019-03-13T07:18:10.283Z,52.1
2019-03-13T07:19:00.338Z,51.7
2019-03-13T07:19:50.408Z,51.3
2019-03-13T07:20:40.878Z,50.9
2019-03-13T07:21:30.848Z,50.5
2019-03-13T07:22:21.233Z,50.1
2019-03-13T07:23:10.656Z,49.8
2019-03-13T07:24:00.795Z,49.4
2019-03-13T07:24:50.024Z,49.1
2019-03-13T07:25:40.542Z,48.8
2019-03-13T07:26:31.475Z,48.5
2019-03-13T07:27:21.205Z,48.2
2019-03-13T07:28:11.015Z,45.7
2019-03-13T07:29:15.477Z,50
2019-03-13T07:29:50.385Z,58.6
2019-03-13T07:30:41.195Z,60.3
2019-03-13T07:31:31.074Z,59.1
2019-03-13T07:32:20.632Z,55.9
2019-03-13T07:33:10.830Z,54.6
2019-03-13T07:34:00.642Z,54.8
2019-03-13T07:34:51.447Z,55.6
2019-03-13T07:35:41.547Z,56.6
2019-03-13T07:36:31.327Z,57.7
2019-03-13T07:37:21.935Z,58.5
2019-03-13T07:38:11.177Z,59
2019-03-13T07:39:02.048Z,59.1
2019-03-13T07:39:50.799Z,59.1
2019-03-13T07:40:42.474Z,59.1
2019-03-13T07:41:32.072Z,59.2
2019-03-13T07:42:21.789Z,59.4
2019-03-13T07:43:12.079Z,59.7
2019-03-13T07:44:02.144Z,59.9
2019-03-13T07:44:51.464Z,60.1
2019-03-13T07:45:42.516Z,60.3
2019-03-13T07:46:32.310Z,60.4
2019-03-13T07:47:21.894Z,60.5
2019-03-13T07:48:12.722Z,60.6
2019-03-13T07:49:02.217Z,60.8
2019-03-13T07:49:52.814Z,60.9
2019-03-13T07:50:42.712Z,60.9
2019-03-13T07:51:32.098Z,61.1
2019-03-13T07:52:23.281Z,61.2
2019-03-13T07:53:12.908Z,61.3
2019-03-13T07:54:02.830Z,61.4
2019-03-13T07:54:52.891Z,61.6
2019-03-13T07:55:42.692Z,61.7
2019-03-13T07:56:32.773Z,61.9
2019-03-13T07:57:23.645Z,62.1
2019-03-13T07:58:13.223Z,62.3
2019-03-13T07:59:03.773Z,62.4
2019-03-13T07:59:53.818Z,62.6
2019-03-13T08:00:43.073Z,62.8
2019-03-13T08:01:33.424Z,62.8
2019-03-13T08:02:22.955Z,62.9
2019-03-13T08:03:14.061Z,63
2019-03-13T08:04:07.593Z,63.1
2019-03-13T08:04:53.699Z,63.3
2019-03-13T08:05:43.689Z,63.4
2019-03-13T08:06:33.759Z,63.4
2019-03-13T08:07:23.820Z,63.5
2019-03-13T08:08:13.317Z,63.6
2019-03-13T08:09:03.620Z,63.8
2019-03-13T08:09:53.995Z,63.9
2019-03-13T08:10:44.120Z,64
2019-03-13T08:11:34.397Z,64.2
2019-03-13T08:12:23.620Z,64.3
2019-03-13T08:13:14.557Z,64.5
2019-03-13T08:14:04.126Z,64.6
2019-03-13T08:14:54.062Z,64.8
2019-03-13T08:15:44.985Z,64.9
2019-03-13T08:16:34.465Z,64.1
2019-03-13T08:17:23.989Z,62.9
2019-03-13T08:18:14.854Z,62.4
2019-03-13T08:19:04.692Z,62.4
2019-03-13T08:19:54.697Z,62.1
2019-03-13T08:20:44.785Z,61.3
2019-03-13T08:21:35.714Z,60.5
2019-03-13T08:22:25.169Z,60.5
2019-03-13T08:23:14.919Z,60.9
2019-03-13T08:24:05.354Z,60.9
2019-03-13T08:24:55.032Z,61.2
2019-03-13T08:25:45.661Z,61.7
2019-03-13T08:26:34.629Z,61.4
2019-03-13T08:27:25.494Z,60.6
2019-03-13T08:28:15.021Z,59.5
2019-03-13T08:29:05.901Z,58.5
2019-03-13T08:29:55.189Z,57.9
2019-03-13T08:30:45.904Z,58.1
2019-03-13T08:31:35.820Z,59.4
2019-03-13T08:32:25.321Z,60.9
2019-03-13T08:33:15.384Z,62.1
2019-03-13T08:34:05.749Z,62.1
2019-03-13T08:34:56.008Z,61.1
2019-03-13T08:35:45.821Z,59.7
2019-03-13T08:36:35.320Z,58.7
2019-03-13T08:37:26.303Z,58.3
2019-03-13T08:38:15.763Z,58.3
2019-03-13T08:39:06.323Z,58.3
2019-03-13T08:39:55.836Z,58.1
2019-03-13T08:40:45.595Z,57.8
2019-03-13T08:41:36.261Z,57.4
2019-03-13T08:42:26.355Z,56.9
2019-03-13T08:43:16.393Z,56.5
2019-03-13T08:44:06.423Z,56.3
2019-03-13T08:44:55.933Z,56
2019-03-13T08:45:46.797Z,56.1
2019-03-13T08:46:36.578Z,57
2019-03-13T08:47:26.135Z,58
2019-03-13T08:48:16.698Z,58.3
2019-03-13T08:49:06.849Z,57.9
2019-03-13T08:49:57.421Z,57.2
2019-03-13T08:50:46.632Z,56.4
2019-03-13T08:51:37.627Z,56
2019-03-13T08:52:27.405Z,55.9
2019-03-13T08:53:17.351Z,55.9
2019-03-13T08:54:07.248Z,56.3
2019-03-13T08:54:57.738Z,56.8
2019-03-13T08:55:47.222Z,57.2
2019-03-13T08:56:36.827Z,57.2
2019-03-13T08:57:27.423Z,56.9
2019-03-13T08:58:17.239Z,56.9
2019-03-13T08:59:07.497Z,57.9
2019-03-13T08:59:56.485Z,59.6
2019-03-13T09:00:47.596Z,61.1
2019-03-13T09:01:37.927Z,62.3
2019-03-13T09:02:27.764Z,62.9
2019-03-13T09:03:17.792Z,63.3
2019-03-13T09:04:08.409Z,63.6
2019-03-13T09:04:57.059Z,63.9
2019-03-13T09:05:47.222Z,64.3
2019-03-13T09:06:37.734Z,64.8
2019-03-13T09:07:27.489Z,65.4
2019-03-13T09:08:18.427Z,66
2019-03-13T09:09:07.969Z,66.3
2019-03-13T09:09:58.352Z,66.5
2019-03-13T09:10:48.594Z,66.7
2019-03-13T09:11:38.688Z,66.9
2019-03-13T09:12:28.987Z,67.1
2019-03-13T09:13:18.506Z,67.3
2019-03-13T09:14:08.841Z,67.5
2019-03-13T09:14:58.124Z,67.6
2019-03-13T09:15:48.926Z,66.7
2019-03-13T09:16:37.950Z,64.9
2019-03-13T09:17:28.579Z,63.6
2019-03-13T09:18:18.632Z,63.4
2019-03-13T09:19:09.063Z,63.9
2019-03-13T09:19:59.268Z,63.6
2019-03-13T09:20:48.900Z,62.6
2019-03-13T09:21:39.499Z,61.4
2019-03-13T09:22:29.746Z,60.3
2019-03-13T09:23:19.766Z,59.4
2019-03-13T09:24:09.026Z,58.8
2019-03-13T09:25:48.276Z,58.2
2019-03-13T09:26:39.696Z,58.1
2019-03-13T09:27:28.438Z,57.9
2019-03-13T09:28:19.560Z,57.7
2019-03-13T09:29:09.630Z,58.1
2019-03-13T09:29:59.683Z,59.5
2019-03-13T09:30:49.608Z,61.6
2019-03-13T09:31:40.093Z,63.1
2019-03-13T09:32:30.385Z,63.1
2019-03-13T09:33:20.202Z,62.1
2019-03-13T09:34:09.150Z,60.8
2019-03-13T09:34:59.513Z,59.5
2019-03-13T09:35:50.373Z,58.6
2019-03-13T09:36:39.867Z,58.3
2019-03-13T09:37:29.920Z,58.4
2019-03-13T09:38:19.830Z,59.1
2019-03-13T09:39:10.635Z,59.8
2019-03-13T09:40:00.374Z,60.8
2019-03-13T09:40:50.690Z,62.2
2019-03-13T09:41:40.582Z,62.9
2019-03-13T09:42:30.411Z,62.8
2019-03-13T09:43:20.660Z,61.8
2019-03-13T09:44:10.685Z,60.3
2019-03-13T09:45:00.727Z,59.1
2019-03-13T09:45:51.354Z,58.4
2019-03-13T09:46:40.660Z,58.4
2019-03-13T09:47:30.637Z,58.6
2019-03-13T09:48:20.739Z,59
2019-03-13T09:49:14.279Z,59.3
2019-03-13T09:50:01.304Z,59.3
2019-03-13T09:50:50.687Z,59.4
2019-03-13T09:51:40.443Z,60.1
2019-03-13T09:52:31.649Z,61.1
2019-03-13T09:53:21.090Z,61.4
2019-03-13T09:54:11.194Z,61.1
2019-03-13T09:55:05.195Z,61.2
2019-03-13T09:55:51.247Z,61.9
2019-03-13T09:56:40.829Z,63.1
2019-03-13T09:57:31.371Z,64.3
2019-03-13T09:58:21.698Z,65.3
2019-03-13T09:59:11.577Z,66.1
2019-03-13T10:00:02.374Z,66.4
2019-03-13T10:00:51.921Z,66.7
2019-03-13T10:01:42.254Z,66.9
2019-03-13T10:02:31.497Z,67.1
2019-03-13T10:03:21.738Z,67.3
2019-03-13T10:04:12.140Z,67.7
2019-03-13T10:06:39.009Z,68.6
2019-03-13T10:07:28.871Z,68.9
2019-03-13T10:08:18.855Z,69.1
2019-03-13T10:09:09.521Z,68.8
2019-03-13T10:09:59.785Z,68.6
2019-03-13T10:10:49.849Z,68.9
2019-03-13T10:11:39.333Z,69.6
2019-03-13T10:12:29.700Z,70.1
2019-03-13T10:13:19.569Z,70.6
2019-03-13T10:14:09.538Z,70.9
2019-03-13T10:14:59.965Z,71.1
2019-03-13T10:15:49.648Z,71.1
2019-03-13T10:16:40.263Z,71.1
2019-03-13T10:17:30.418Z,71.2
2019-03-13T10:18:19.823Z,71.1
2019-03-13T10:19:09.628Z,71.1
2019-03-13T10:20:00.520Z,71.2
2019-03-13T10:20:50.303Z,71.3
2019-03-13T10:21:40.045Z,71.5
2019-03-13T10:22:30.931Z,71.6
2019-03-13T10:23:19.149Z,71.7
2019-03-13T10:24:10.518Z,71.7
2019-03-13T10:25:01.351Z,71.7
2019-03-13T10:25:54.223Z,71.7
2019-03-13T10:26:40.973Z,71.3
2019-03-13T10:27:30.199Z,70.3
2019-03-13T10:28:21.077Z,69.7
2019-03-13T10:29:11.505Z,69.6
2019-03-13T10:30:00.845Z,70
2019-03-13T10:30:50.977Z,70.4
2019-03-13T10:31:41.121Z,70.8
2019-03-13T10:32:31.656Z,70.6
2019-03-13T10:33:21.480Z,70.5
2019-03-13T10:34:10.667Z,70.6
2019-03-13T10:35:01.608Z,70.8
2019-03-13T10:35:51.425Z,70.3
2019-03-13T10:36:41.959Z,69.1
2019-03-13T10:37:31.726Z,68.4
2019-03-13T10:38:21.889Z,68.2
2019-03-13T10:39:11.582Z,67.9
2019-03-13T10:40:01.945Z,67.6
2019-03-13T10:40:51.682Z,67.2
2019-03-13T10:41:42.037Z,66.6
2019-03-13T10:42:32.015Z,66.3
2019-03-13T10:43:22.166Z,66.1
2019-03-13T10:44:12.231Z,65.7
2019-03-13T10:45:02.539Z,64.9
2019-03-13T10:45:52.353Z,64.2
2019-03-13T10:46:42.516Z,64.3
2019-03-13T10:47:32.252Z,64.5
2019-03-13T10:48:22.276Z,64.2
2019-03-13T10:49:12.059Z,63.7
2019-03-13T10:50:02.906Z,63.8
2019-03-13T10:50:52.423Z,64.8
2019-03-13T10:51:42.540Z,66.4
2019-03-13T10:52:32.536Z,67.9
2019-03-13T10:53:22.916Z,68.9
2019-03-13T10:54:12.365Z,69.4
2019-03-13T10:55:03.094Z,69.7
2019-03-13T10:55:55.742Z,69.7
2019-03-13T10:56:42.365Z,69.6
2019-03-13T10:57:33.163Z,69.8
2019-03-13T10:58:23.223Z,69.9
2019-03-13T10:59:12.736Z,70.2
2019-03-13T11:00:03.361Z,70.5
2019-03-13T11:00:53.606Z,70.8
2019-03-13T11:01:42.625Z,70.9
2019-03-13T11:02:32.976Z,71.1
2019-03-13T11:03:23.640Z,71.2
2019-03-13T11:04:13.168Z,71.3
2019-03-13T11:05:03.093Z,71.3
2019-03-13T11:05:53.244Z,71.3
2019-03-13T11:06:57.212Z,71.3
2019-03-13T11:07:34.712Z,71.3
2019-03-13T11:08:23.705Z,71.3
2019-03-13T11:09:14.275Z,71.4
2019-03-13T11:10:04.178Z,71.4
2019-03-13T11:10:52.812Z,71.3
2019-03-13T11:11:43.894Z,70.3
2019-03-13T11:12:33.407Z,69.6
2019-03-13T11:13:24.069Z,69.6
2019-03-13T11:14:21.495Z,70.1
2019-03-13T11:15:04.825Z,70.8
2019-03-13T11:15:54.477Z,71.2
2019-03-13T11:16:44.377Z,71.4
2019-03-13T11:17:34.894Z,71.3